sensor_id;sensor_type;location;lat;lon;timestamp;temperature;humidity
73360;DHT22;63092;43.582;19.528;2022-11-15T00:01:54;8.60;98.10
73360;DHT22;63092;43.582;19.528;2022-11-15T00:04:20;8.60;98.00
73360;DHT22;63092;43.582;19.528;2022-11-15T00:06:46;8.60;98.10
73360;DHT22;63092;43.582;19.528;2022-11-15T00:09:11;8.60;98.10
73360;DHT22;63092;43.582;19.528;2022-11-15T00:11:37;8.60;98.20
73360;DHT22;63092;43.582;19.528;2022-11-15T00:14:03;8.70;98.30
73360;DHT22;63092;43.582;19.528;2022-11-15T00:16:28;8.70;98.20
73360;DHT22;63092;43.582;19.528;2022-11-15T00:18:54;8.60;98.30
73360;DHT22;63092;43.582;19.528;2022-11-15T00:21:20;8.60;98.30
73360;DHT22;63092;43.582;19.528;2022-11-15T00:23:46;8.70;98.30
73360;DHT22;63092;43.582;19.528;2022-11-15T00:26:13;8.60;98.40
73360;DHT22;63092;43.582;19.528;2022-11-15T00:28:40;8.50;98.80
73360;DHT22;63092;43.582;19.528;2022-11-15T00:31:11;8.60;98.60
73360;DHT22;63092;43.582;19.528;2022-11-15T00:33:37;8.60;98.60
73360;DHT22;63092;43.582;19.528;2022-11-15T00:36:05;8.70;98.70
73360;DHT22;63092;43.582;19.528;2022-11-15T00:38:35;8.60;98.60
73360;DHT22;63092;43.582;19.528;2022-11-15T00:41:03;8.70;98.90
73360;DHT22;63092;43.582;19.528;2022-11-15T00:43:29;8.70;98.80
73360;DHT22;63092;43.582;19.528;2022-11-15T00:45:55;8.70;99.00
73360;DHT22;63092;43.582;19.528;2022-11-15T00:48:21;8.80;98.80
73360;DHT22;63092;43.582;19.528;2022-11-15T00:50:46;8.90;98.70
73360;DHT22;63092;43.582;19.528;2022-11-15T00:53:12;8.80;98.70
73360;DHT22;63092;43.582;19.528;2022-11-15T00:55:38;8.70;99.00
73360;DHT22;63092;43.582;19.528;2022-11-15T00:58:04;8.70;99.10
73360;DHT22;63092;43.582;19.528;2022-11-15T01:00:29;8.70;99.00
73360;DHT22;63092;43.582;19.528;2022-11-15T01:02:55;8.80;99.00
73360;DHT22;63092;43.582;19.528;2022-11-15T01:05:21;8.70;99.20
73360;DHT22;63092;43.582;19.528;2022-11-15T01:07:46;8.80;99.10
73360;DHT22;63092;43.582;19.528;2022-11-15T01:10:12;8.90;99.10
73360;DHT22;63092;43.582;19.528;2022-11-15T01:12:38;8.80;99.20
73360;DHT22;63092;43.582;19.528;2022-11-15T01:15:05;8.80;99.50
73360;DHT22;63092;43.582;19.528;2022-11-15T01:17:31;8.80;99.50
73360;DHT22;63092;43.582;19.528;2022-11-15T01:19:56;8.80;99.40
73360;DHT22;63092;43.582;19.528;2022-11-15T01:22:22;8.70;99.60
73360;DHT22;63092;43.582;19.528;2022-11-15T01:24:51;8.60;99.90
73360;DHT22;63092;43.582;19.528;2022-11-15T01:27:17;8.40;99.90
73360;DHT22;63092;43.582;19.528;2022-11-15T01:29:43;8.20;99.90
73360;DHT22;63092;43.582;19.528;2022-11-15T01:32:08;8.20;99.90
73360;DHT22;63092;43.582;19.528;2022-11-15T01:34:34;8.20;99.90
73360;DHT22;63092;43.582;19.528;2022-11-15T01:37:00;8.20;99.90
73360;DHT22;63092;43.582;19.528;2022-11-15T01:39:26;8.30;99.90
73360;DHT22;63092;43.582;19.528;2022-11-15T01:41:53;8.30;99.90
73360;DHT22;63092;43.582;19.528;2022-11-15T01:46:58;8.20;99.90
73360;DHT22;63092;43.582;19.528;2022-11-15T01:49:25;8.20;99.90
73360;DHT22;63092;43.582;19.528;2022-11-15T01:51:53;8.20;99.90
73360;DHT22;63092;43.582;19.528;2022-11-15T01:54:21;8.30;99.90
73360;DHT22;63092;43.582;19.528;2022-11-15T01:56:54;8.30;99.90
73360;DHT22;63092;43.582;19.528;2022-11-15T01:59:22;8.30;99.90
73360;DHT22;63092;43.582;19.528;2022-11-15T02:01:48;8.40;99.90
73360;DHT22;63092;43.582;19.528;2022-11-15T02:04:20;8.40;99.90
73360;DHT22;63092;43.582;19.528;2022-11-15T02:06:48;8.40;99.90
73360;DHT22;63092;43.582;19.528;2022-11-15T02:09:14;8.40;99.90
73360;DHT22;63092;43.582;19.528;2022-11-15T02:11:40;8.50;99.90
73360;DHT22;63092;43.582;19.528;2022-11-15T02:14:07;8.50;99.90
73360;DHT22;63092;43.582;19.528;2022-11-15T02:16:36;8.50;99.90
73360;DHT22;63092;43.582;19.528;2022-11-15T02:28:32;8.60;99.90
73360;DHT22;63092;43.582;19.528;2022-11-15T02:31:00;8.60;99.90
73360;DHT22;63092;43.582;19.528;2022-11-15T02:36:00;8.60;99.90
73360;DHT22;63092;43.582;19.528;2022-11-15T02:38:45;8.50;99.90
73360;DHT22;63092;43.582;19.528;2022-11-15T02:41:16;8.50;99.90
73360;DHT22;63092;43.582;19.528;2022-11-15T02:43:51;8.50;99.90
73360;DHT22;63092;43.582;19.528;2022-11-15T02:46:58;8.60;99.90
73360;DHT22;63092;43.582;19.528;2022-11-15T02:49:45;8.50;99.90
73360;DHT22;63092;43.582;19.528;2022-11-15T02:52:16;8.50;99.90
73360;DHT22;63092;43.582;19.528;2022-11-15T02:54:42;8.50;99.90
73360;DHT22;63092;43.582;19.528;2022-11-15T02:57:15;8.50;99.90
73360;DHT22;63092;43.582;19.528;2022-11-15T03:00:01;8.50;99.90
73360;DHT22;63092;43.582;19.528;2022-11-15T03:03:15;8.50;99.90
73360;DHT22;63092;43.582;19.528;2022-11-15T03:05:53;8.50;99.90
73360;DHT22;63092;43.582;19.528;2022-11-15T03:08:30;8.60;99.90
73360;DHT22;63092;43.582;19.528;2022-11-15T03:11:14;8.60;99.90
73360;DHT22;63092;43.582;19.528;2022-11-15T03:16:38;8.90;99.90
73360;DHT22;63092;43.582;19.528;2022-11-15T03:19:54;8.90;99.90
73360;DHT22;63092;43.582;19.528;2022-11-15T03:22:02;8.90;99.90
73360;DHT22;63092;43.582;19.528;2022-11-15T03:24:29;8.80;99.90
73360;DHT22;63092;43.582;19.528;2022-11-15T03:26:57;8.80;99.90
73360;DHT22;63092;43.582;19.528;2022-11-15T03:29:29;8.70;99.90
73360;DHT22;63092;43.582;19.528;2022-11-15T03:32:03;8.70;99.90
73360;DHT22;63092;43.582;19.528;2022-11-15T03:37:01;8.80;99.90
73360;DHT22;63092;43.582;19.528;2022-11-15T03:39:28;8.90;99.90
73360;DHT22;63092;43.582;19.528;2022-11-15T03:44:41;8.90;99.90
73360;DHT22;63092;43.582;19.528;2022-11-15T03:47:14;8.90;99.90
73360;DHT22;63092;43.582;19.528;2022-11-15T03:49:50;9.00;99.90
73360;DHT22;63092;43.582;19.528;2022-11-15T03:52:21;9.10;99.90
73360;DHT22;63092;43.582;19.528;2022-11-15T03:54:53;9.10;99.90
73360;DHT22;63092;43.582;19.528;2022-11-15T03:57:19;9.00;99.90
73360;DHT22;63092;43.582;19.528;2022-11-15T03:59:45;8.90;99.90
73360;DHT22;63092;43.582;19.528;2022-11-15T04:02:11;8.90;99.90
73360;DHT22;63092;43.582;19.528;2022-11-15T04:04:37;8.90;99.90
73360;DHT22;63092;43.582;19.528;2022-11-15T04:07:03;8.80;99.90
73360;DHT22;63092;43.582;19.528;2022-11-15T04:09:29;8.90;99.90
73360;DHT22;63092;43.582;19.528;2022-11-15T04:11:55;8.90;99.90
73360;DHT22;63092;43.582;19.528;2022-11-15T04:14:20;9.00;99.90
73360;DHT22;63092;43.582;19.528;2022-11-15T04:16:46;9.00;99.90
73360;DHT22;63092;43.582;19.528;2022-11-15T04:19:12;9.00;99.90
73360;DHT22;63092;43.582;19.528;2022-11-15T04:21:56;9.10;99.90
73360;DHT22;63092;43.582;19.528;2022-11-15T04:24:40;9.10;99.90
73360;DHT22;63092;43.582;19.528;2022-11-15T04:27:06;9.10;99.90
73360;DHT22;63092;43.582;19.528;2022-11-15T04:29:31;9.10;99.90
73360;DHT22;63092;43.582;19.528;2022-11-15T04:32:04;9.10;99.90
73360;DHT22;63092;43.582;19.528;2022-11-15T04:34:30;9.10;99.90
73360;DHT22;63092;43.582;19.528;2022-11-15T04:36:56;9.20;99.90
73360;DHT22;63092;43.582;19.528;2022-11-15T04:39:37;9.20;99.90
73360;DHT22;63092;43.582;19.528;2022-11-15T04:42:03;9.20;99.90
73360;DHT22;63092;43.582;19.528;2022-11-15T04:44:29;9.10;99.90
73360;DHT22;63092;43.582;19.528;2022-11-15T04:46:54;9.10;99.90
73360;DHT22;63092;43.582;19.528;2022-11-15T04:49:20;9.00;99.90
73360;DHT22;63092;43.582;19.528;2022-11-15T04:51:46;9.00;99.90
73360;DHT22;63092;43.582;19.528;2022-11-15T04:54:12;9.00;99.90
73360;DHT22;63092;43.582;19.528;2022-11-15T04:56:37;8.80;99.90
73360;DHT22;63092;43.582;19.528;2022-11-15T04:59:03;8.90;99.90
73360;DHT22;63092;43.582;19.528;2022-11-15T05:01:29;8.70;99.90
73360;DHT22;63092;43.582;19.528;2022-11-15T05:03:54;8.70;99.90
73360;DHT22;63092;43.582;19.528;2022-11-15T05:06:39;8.70;99.90
73360;DHT22;63092;43.582;19.528;2022-11-15T05:09:05;8.70;99.90
73360;DHT22;63092;43.582;19.528;2022-11-15T05:11:30;8.80;99.90
73360;DHT22;63092;43.582;19.528;2022-11-15T05:13:56;8.80;99.90
73360;DHT22;63092;43.582;19.528;2022-11-15T05:16:22;8.80;99.90
73360;DHT22;63092;43.582;19.528;2022-11-15T05:18:51;8.90;99.90
73360;DHT22;63092;43.582;19.528;2022-11-15T05:21:17;8.90;99.90
73360;DHT22;63092;43.582;19.528;2022-11-15T05:23:43;8.90;99.90
73360;DHT22;63092;43.582;19.528;2022-11-15T05:26:09;8.90;99.90
73360;DHT22;63092;43.582;19.528;2022-11-15T05:28:35;9.00;99.90
73360;DHT22;63092;43.582;19.528;2022-11-15T05:31:10;9.00;99.90
73360;DHT22;63092;43.582;19.528;2022-11-15T05:33:37;8.90;99.90
73360;DHT22;63092;43.582;19.528;2022-11-15T05:38:49;9.00;99.90
73360;DHT22;63092;43.582;19.528;2022-11-15T05:41:18;9.00;99.90
73360;DHT22;63092;43.582;19.528;2022-11-15T05:43:44;9.10;99.90
73360;DHT22;63092;43.582;19.528;2022-11-15T05:46:12;9.10;99.90
73360;DHT22;63092;43.582;19.528;2022-11-15T05:48:41;9.10;99.90
73360;DHT22;63092;43.582;19.528;2022-11-15T05:51:08;9.10;99.90
73360;DHT22;63092;43.582;19.528;2022-11-15T05:53:34;9.10;99.90
73360;DHT22;63092;43.582;19.528;2022-11-15T05:56:02;9.10;99.90
73360;DHT22;63092;43.582;19.528;2022-11-15T05:58:31;9.10;99.90
73360;DHT22;63092;43.582;19.528;2022-11-15T06:00:57;9.00;99.90
73360;DHT22;63092;43.582;19.528;2022-11-15T06:03:23;9.00;99.90
73360;DHT22;63092;43.582;19.528;2022-11-15T06:05:49;9.00;99.90
73360;DHT22;63092;43.582;19.528;2022-11-15T06:08:14;9.10;99.90
73360;DHT22;63092;43.582;19.528;2022-11-15T06:10:40;9.10;99.90
73360;DHT22;63092;43.582;19.528;2022-11-15T06:13:06;9.10;99.90
73360;DHT22;63092;43.582;19.528;2022-11-15T06:15:32;9.10;99.90
73360;DHT22;63092;43.582;19.528;2022-11-15T06:18:01;9.10;99.90
73360;DHT22;63092;43.582;19.528;2022-11-15T06:20:28;9.20;99.90
73360;DHT22;63092;43.582;19.528;2022-11-15T06:23:02;9.10;99.90
73360;DHT22;63092;43.582;19.528;2022-11-15T06:25:30;9.10;99.90
73360;DHT22;63092;43.582;19.528;2022-11-15T06:27:57;9.20;99.90
73360;DHT22;63092;43.582;19.528;2022-11-15T06:30:24;9.10;99.90
73360;DHT22;63092;43.582;19.528;2022-11-15T06:32:49;9.00;99.90
73360;DHT22;63092;43.582;19.528;2022-11-15T06:35:16;9.00;99.90
73360;DHT22;63092;43.582;19.528;2022-11-15T06:37:42;9.00;99.90
73360;DHT22;63092;43.582;19.528;2022-11-15T06:40:09;9.00;99.90
73360;DHT22;63092;43.582;19.528;2022-11-15T06:42:35;9.10;99.90
73360;DHT22;63092;43.582;19.528;2022-11-15T06:45:01;9.00;99.90
73360;DHT22;63092;43.582;19.528;2022-11-15T06:47:27;9.00;99.90
73360;DHT22;63092;43.582;19.528;2022-11-15T06:49:53;8.90;99.90
73360;DHT22;63092;43.582;19.528;2022-11-15T06:52:19;8.90;99.90
73360;DHT22;63092;43.582;19.528;2022-11-15T06:54:45;8.90;99.90
73360;DHT22;63092;43.582;19.528;2022-11-15T06:57:10;8.90;99.90
73360;DHT22;63092;43.582;19.528;2022-11-15T06:59:36;8.90;99.90
73360;DHT22;63092;43.582;19.528;2022-11-15T07:02:02;8.90;99.90
73360;DHT22;63092;43.582;19.528;2022-11-15T07:04:28;8.90;99.90
73360;DHT22;63092;43.582;19.528;2022-11-15T07:06:54;8.90;99.90
73360;DHT22;63092;43.582;19.528;2022-11-15T07:09:19;9.00;99.90
73360;DHT22;63092;43.582;19.528;2022-11-15T07:11:45;9.00;99.90
73360;DHT22;63092;43.582;19.528;2022-11-15T07:14:11;9.10;99.90
73360;DHT22;63092;43.582;19.528;2022-11-15T07:16:37;9.10;99.90
73360;DHT22;63092;43.582;19.528;2022-11-15T07:19:03;9.20;99.90
73360;DHT22;63092;43.582;19.528;2022-11-15T07:21:29;9.20;99.90
73360;DHT22;63092;43.582;19.528;2022-11-15T07:23:55;9.20;99.90
73360;DHT22;63092;43.582;19.528;2022-11-15T07:26:21;9.10;99.90
73360;DHT22;63092;43.582;19.528;2022-11-15T07:28:47;9.10;99.90
73360;DHT22;63092;43.582;19.528;2022-11-15T07:31:12;9.20;99.90
73360;DHT22;63092;43.582;19.528;2022-11-15T07:33:38;9.20;99.90
73360;DHT22;63092;43.582;19.528;2022-11-15T07:36:05;9.20;99.90
73360;DHT22;63092;43.582;19.528;2022-11-15T07:38:32;9.10;99.90
73360;DHT22;63092;43.582;19.528;2022-11-15T07:41:05;9.10;99.90
73360;DHT22;63092;43.582;19.528;2022-11-15T07:43:31;9.10;99.90
73360;DHT22;63092;43.582;19.528;2022-11-15T07:46:08;9.10;99.90
73360;DHT22;63092;43.582;19.528;2022-11-15T07:48:37;9.20;99.90
73360;DHT22;63092;43.582;19.528;2022-11-15T07:51:05;9.20;99.90
73360;DHT22;63092;43.582;19.528;2022-11-15T07:53:31;9.30;99.90
73360;DHT22;63092;43.582;19.528;2022-11-15T07:55:57;9.30;99.90
73360;DHT22;63092;43.582;19.528;2022-11-15T07:58:23;9.30;99.90
73360;DHT22;63092;43.582;19.528;2022-11-15T08:00:48;9.20;99.90
73360;DHT22;63092;43.582;19.528;2022-11-15T08:03:15;9.40;99.90
73360;DHT22;63092;43.582;19.528;2022-11-15T08:05:43;9.40;99.90
73360;DHT22;63092;43.582;19.528;2022-11-15T08:08:14;9.40;99.90
73360;DHT22;63092;43.582;19.528;2022-11-15T08:10:40;9.40;99.90
73360;DHT22;63092;43.582;19.528;2022-11-15T08:13:09;9.40;99.90
73360;DHT22;63092;43.582;19.528;2022-11-15T08:15:36;9.50;99.90
73360;DHT22;63092;43.582;19.528;2022-11-15T08:18:13;9.50;99.90
73360;DHT22;63092;43.582;19.528;2022-11-15T08:20:39;9.60;99.90
73360;DHT22;63092;43.582;19.528;2022-11-15T08:23:05;9.60;99.90
73360;DHT22;63092;43.582;19.528;2022-11-15T08:25:33;9.60;99.90
73360;DHT22;63092;43.582;19.528;2022-11-15T08:28:04;9.60;99.90
73360;DHT22;63092;43.582;19.528;2022-11-15T08:30:31;9.60;99.90
73360;DHT22;63092;43.582;19.528;2022-11-15T08:32:59;9.60;99.90
73360;DHT22;63092;43.582;19.528;2022-11-15T08:35:25;9.60;99.90
73360;DHT22;63092;43.582;19.528;2022-11-15T08:37:52;9.50;99.90
73360;DHT22;63092;43.582;19.528;2022-11-15T08:40:18;9.70;99.90
73360;DHT22;63092;43.582;19.528;2022-11-15T08:42:48;9.70;99.90
73360;DHT22;63092;43.582;19.528;2022-11-15T08:45:14;9.80;99.90
73360;DHT22;63092;43.582;19.528;2022-11-15T08:47:40;9.90;99.90
73360;DHT22;63092;43.582;19.528;2022-11-15T08:50:06;10.00;99.90
73360;DHT22;63092;43.582;19.528;2022-11-15T08:52:32;10.00;99.90
73360;DHT22;63092;43.582;19.528;2022-11-15T08:54:58;10.10;99.90
73360;DHT22;63092;43.582;19.528;2022-11-15T08:57:23;10.20;99.90
73360;DHT22;63092;43.582;19.528;2022-11-15T08:59:49;10.30;99.90
73360;DHT22;63092;43.582;19.528;2022-11-15T09:02:15;10.30;99.90
73360;DHT22;63092;43.582;19.528;2022-11-15T09:04:42;10.40;99.90
73360;DHT22;63092;43.582;19.528;2022-11-15T09:07:11;10.40;99.90
73360;DHT22;63092;43.582;19.528;2022-11-15T09:09:37;10.50;99.90
73360;DHT22;63092;43.582;19.528;2022-11-15T09:12:04;10.50;99.90
73360;DHT22;63092;43.582;19.528;2022-11-15T09:14:30;10.60;99.90
73360;DHT22;63092;43.582;19.528;2022-11-15T09:16:55;10.40;99.90
73360;DHT22;63092;43.582;19.528;2022-11-15T09:19:21;10.50;99.90
73360;DHT22;63092;43.582;19.528;2022-11-15T09:21:47;10.70;99.90
73360;DHT22;63092;43.582;19.528;2022-11-15T09:24:13;10.80;99.90
73360;DHT22;63092;43.582;19.528;2022-11-15T09:26:39;10.90;99.90
73360;DHT22;63092;43.582;19.528;2022-11-15T09:29:05;10.90;99.90
73360;DHT22;63092;43.582;19.528;2022-11-15T09:31:30;11.00;99.90
73360;DHT22;63092;43.582;19.528;2022-11-15T09:33:56;11.00;99.90
73360;DHT22;63092;43.582;19.528;2022-11-15T09:36:21;11.10;99.90
73360;DHT22;63092;43.582;19.528;2022-11-15T09:38:47;11.10;99.90
73360;DHT22;63092;43.582;19.528;2022-11-15T09:49:01;11.10;99.90
73360;DHT22;63092;43.582;19.528;2022-11-15T09:51:41;11.10;99.90
73360;DHT22;63092;43.582;19.528;2022-11-15T09:54:30;11.30;99.90
73360;DHT22;63092;43.582;19.528;2022-11-15T09:57:13;11.20;99.90
73360;DHT22;63092;43.582;19.528;2022-11-15T10:00:04;11.30;99.90
73360;DHT22;63092;43.582;19.528;2022-11-15T10:05:09;11.30;99.90
73360;DHT22;63092;43.582;19.528;2022-11-15T10:07:48;11.40;99.90
73360;DHT22;63092;43.582;19.528;2022-11-15T10:12:56;11.60;99.90
73360;DHT22;63092;43.582;19.528;2022-11-15T10:15:22;11.60;99.90
73360;DHT22;63092;43.582;19.528;2022-11-15T10:20:40;11.60;99.90
73360;DHT22;63092;43.582;19.528;2022-11-15T10:23:11;11.50;99.90
73360;DHT22;63092;43.582;19.528;2022-11-15T10:25:38;11.50;99.90
73360;DHT22;63092;43.582;19.528;2022-11-15T10:28:27;11.50;99.90
73360;DHT22;63092;43.582;19.528;2022-11-15T10:30:55;11.60;99.90
73360;DHT22;63092;43.582;19.528;2022-11-15T10:41:37;11.90;99.70
73360;DHT22;63092;43.582;19.528;2022-11-15T10:44:25;11.90;99.80
73360;DHT22;63092;43.582;19.528;2022-11-15T10:49:30;11.80;99.90
73360;DHT22;63092;43.582;19.528;2022-11-15T10:52:17;11.60;99.90
73360;DHT22;63092;43.582;19.528;2022-11-15T10:54:51;11.60;99.90
73360;DHT22;63092;43.582;19.528;2022-11-15T10:57:19;11.50;99.90
73360;DHT22;63092;43.582;19.528;2022-11-15T10:59:51;11.40;99.90
73360;DHT22;63092;43.582;19.528;2022-11-15T11:04:53;11.40;99.90
73360;DHT22;63092;43.582;19.528;2022-11-15T11:07:27;11.50;99.90
73360;DHT22;63092;43.582;19.528;2022-11-15T11:10:05;11.50;99.90
73360;DHT22;63092;43.582;19.528;2022-11-15T11:12:42;11.40;99.90
73360;DHT22;63092;43.582;19.528;2022-11-15T11:15:13;11.40;99.90
73360;DHT22;63092;43.582;19.528;2022-11-15T11:18:01;11.50;99.90
73360;DHT22;63092;43.582;19.528;2022-11-15T11:28:14;11.50;99.90
73360;DHT22;63092;43.582;19.528;2022-11-15T11:34:09;11.50;99.90
73360;DHT22;63092;43.582;19.528;2022-11-15T11:48:14;11.70;99.90
73360;DHT22;63092;43.582;19.528;2022-11-15T11:50:42;11.60;99.90
73360;DHT22;63092;43.582;19.528;2022-11-15T11:55:48;11.70;99.90
73360;DHT22;63092;43.582;19.528;2022-11-15T11:59:05;11.80;99.90
73360;DHT22;63092;43.582;19.528;2022-11-15T12:01:24;11.80;99.90
73360;DHT22;63092;43.582;19.528;2022-11-15T12:04:02;11.90;99.90
73360;DHT22;63092;43.582;19.528;2022-11-15T12:06:45;11.80;99.90
73360;DHT22;63092;43.582;19.528;2022-11-15T12:09:20;11.80;99.90
73360;DHT22;63092;43.582;19.528;2022-11-15T12:17:11;12.00;99.90
73360;DHT22;63092;43.582;19.528;2022-11-15T12:19:40;12.00;99.90
73360;DHT22;63092;43.582;19.528;2022-11-15T12:22:24;12.20;99.90
73360;DHT22;63092;43.582;19.528;2022-11-15T12:25:06;12.40;99.90
73360;DHT22;63092;43.582;19.528;2022-11-15T12:27:40;12.60;99.90
73360;DHT22;63092;43.582;19.528;2022-11-15T12:30:16;12.80;99.40
73360;DHT22;63092;43.582;19.528;2022-11-15T12:32:55;12.80;99.40
73360;DHT22;63092;43.582;19.528;2022-11-15T12:35:34;12.80;99.80
73360;DHT22;63092;43.582;19.528;2022-11-15T12:38:00;12.90;99.60
73360;DHT22;63092;43.582;19.528;2022-11-15T12:40:35;12.90;99.50
73360;DHT22;63092;43.582;19.528;2022-11-15T12:45:44;13.00;99.20
73360;DHT22;63092;43.582;19.528;2022-11-15T12:53:33;13.20;99.00
73360;DHT22;63092;43.582;19.528;2022-11-15T12:58:44;13.00;99.20
73360;DHT22;63092;43.582;19.528;2022-11-15T13:04:21;12.90;99.20
73360;DHT22;63092;43.582;19.528;2022-11-15T13:07:07;12.80;99.30
73360;DHT22;63092;43.582;19.528;2022-11-15T13:14:56;12.50;99.70
73360;DHT22;63092;43.582;19.528;2022-11-15T13:20:01;12.50;99.80
73360;DHT22;63092;43.582;19.528;2022-11-15T13:22:28;12.40;99.90
73360;DHT22;63092;43.582;19.528;2022-11-15T13:33:36;12.30;99.90
73360;DHT22;63092;43.582;19.528;2022-11-15T13:36:21;12.40;99.90
73360;DHT22;63092;43.582;19.528;2022-11-15T13:39:00;12.40;99.90
73360;DHT22;63092;43.582;19.528;2022-11-15T13:41:29;12.40;99.90
73360;DHT22;63092;43.582;19.528;2022-11-15T13:43:56;12.40;99.90
73360;DHT22;63092;43.582;19.528;2022-11-15T13:46:30;12.40;99.90
73360;DHT22;63092;43.582;19.528;2022-11-15T13:49:08;12.40;99.90
73360;DHT22;63092;43.582;19.528;2022-11-15T13:56:35;12.50;99.90
73360;DHT22;63092;43.582;19.528;2022-11-15T13:59:21;12.50;99.90
73360;DHT22;63092;43.582;19.528;2022-11-15T14:01:50;12.60;99.90
73360;DHT22;63092;43.582;19.528;2022-11-15T14:04:20;12.60;99.90
73360;DHT22;63092;43.582;19.528;2022-11-15T14:06:49;12.60;99.90
73360;DHT22;63092;43.582;19.528;2022-11-15T14:09:32;12.60;99.90
73360;DHT22;63092;43.582;19.528;2022-11-15T14:11:59;12.50;99.90
73360;DHT22;63092;43.582;19.528;2022-11-15T14:14:27;12.50;99.90
73360;DHT22;63092;43.582;19.528;2022-11-15T14:16:58;12.50;99.90
73360;DHT22;63092;43.582;19.528;2022-11-15T14:24:39;12.50;99.90
73360;DHT22;63092;43.582;19.528;2022-11-15T14:27:27;12.50;99.90
73360;DHT22;63092;43.582;19.528;2022-11-15T14:29:54;12.40;99.90
73360;DHT22;63092;43.582;19.528;2022-11-15T14:32:23;12.40;99.90
73360;DHT22;63092;43.582;19.528;2022-11-15T14:35:02;12.40;99.90
73360;DHT22;63092;43.582;19.528;2022-11-15T14:37:33;12.40;99.90
73360;DHT22;63092;43.582;19.528;2022-11-15T14:40:05;12.40;99.90
73360;DHT22;63092;43.582;19.528;2022-11-15T14:42:31;12.30;99.90
73360;DHT22;63092;43.582;19.528;2022-11-15T14:44:57;12.30;99.90
73360;DHT22;63092;43.582;19.528;2022-11-15T14:47:23;12.30;99.90
73360;DHT22;63092;43.582;19.528;2022-11-15T14:49:48;12.30;99.90
73360;DHT22;63092;43.582;19.528;2022-11-15T14:54:49;12.30;99.90
73360;DHT22;63092;43.582;19.528;2022-11-15T14:57:15;12.20;99.90
73360;DHT22;63092;43.582;19.528;2022-11-15T14:59:41;12.20;99.90
73360;DHT22;63092;43.582;19.528;2022-11-15T15:02:17;12.20;99.90
73360;DHT22;63092;43.582;19.528;2022-11-15T15:04:43;12.20;99.90
73360;DHT22;63092;43.582;19.528;2022-11-15T15:07:09;12.20;99.90
73360;DHT22;63092;43.582;19.528;2022-11-15T15:09:34;12.20;99.90
73360;DHT22;63092;43.582;19.528;2022-11-15T15:12:00;12.20;99.90
73360;DHT22;63092;43.582;19.528;2022-11-15T15:14:26;12.20;99.90
73360;DHT22;63092;43.582;19.528;2022-11-15T15:16:52;12.20;99.90
73360;DHT22;63092;43.582;19.528;2022-11-15T15:19:17;12.10;99.90
73360;DHT22;63092;43.582;19.528;2022-11-15T15:21:43;12.10;99.90
73360;DHT22;63092;43.582;19.528;2022-11-15T15:24:14;12.10;99.90
73360;DHT22;63092;43.582;19.528;2022-11-15T15:26:42;12.00;99.90
73360;DHT22;63092;43.582;19.528;2022-11-15T15:29:09;12.00;99.90
73360;DHT22;63092;43.582;19.528;2022-11-15T15:31:35;12.00;99.90
73360;DHT22;63092;43.582;19.528;2022-11-15T15:34:01;12.00;99.90
73360;DHT22;63092;43.582;19.528;2022-11-15T15:36:27;12.00;99.90
73360;DHT22;63092;43.582;19.528;2022-11-15T15:38:52;12.00;99.90
73360;DHT22;63092;43.582;19.528;2022-11-15T15:41:18;12.00;99.90
73360;DHT22;63092;43.582;19.528;2022-11-15T15:43:44;11.90;99.90
73360;DHT22;63092;43.582;19.528;2022-11-15T15:46:12;11.80;99.90
73360;DHT22;63092;43.582;19.528;2022-11-15T15:48:39;11.90;99.90
73360;DHT22;63092;43.582;19.528;2022-11-15T15:51:05;11.90;99.90
73360;DHT22;63092;43.582;19.528;2022-11-15T15:53:31;11.90;99.90
73360;DHT22;63092;43.582;19.528;2022-11-15T15:55:57;11.90;99.90
73360;DHT22;63092;43.582;19.528;2022-11-15T15:58:24;11.90;99.90
73360;DHT22;63092;43.582;19.528;2022-11-15T16:00:50;11.90;99.90
73360;DHT22;63092;43.582;19.528;2022-11-15T16:03:16;12.00;99.90
73360;DHT22;63092;43.582;19.528;2022-11-15T16:05:41;12.00;99.90
73360;DHT22;63092;43.582;19.528;2022-11-15T16:08:22;11.90;99.90
73360;DHT22;63092;43.582;19.528;2022-11-15T16:10:48;11.80;99.90
73360;DHT22;63092;43.582;19.528;2022-11-15T16:13:14;11.80;99.90
73360;DHT22;63092;43.582;19.528;2022-11-15T16:15:40;11.80;99.90
73360;DHT22;63092;43.582;19.528;2022-11-15T16:18:12;11.80;99.90
73360;DHT22;63092;43.582;19.528;2022-11-15T16:20:45;11.80;99.90
73360;DHT22;63092;43.582;19.528;2022-11-15T16:23:16;11.80;99.90
73360;DHT22;63092;43.582;19.528;2022-11-15T16:25:50;11.80;99.90
73360;DHT22;63092;43.582;19.528;2022-11-15T16:28:28;11.80;99.90
73360;DHT22;63092;43.582;19.528;2022-11-15T16:31:02;11.70;99.90
73360;DHT22;63092;43.582;19.528;2022-11-15T16:33:28;11.70;99.90
73360;DHT22;63092;43.582;19.528;2022-11-15T16:35:53;11.70;99.90
73360;DHT22;63092;43.582;19.528;2022-11-15T16:38:19;11.80;99.90
73360;DHT22;63092;43.582;19.528;2022-11-15T16:40:45;11.70;99.90
73360;DHT22;63092;43.582;19.528;2022-11-15T16:43:11;11.70;99.90
73360;DHT22;63092;43.582;19.528;2022-11-15T16:45:37;11.60;99.90
73360;DHT22;63092;43.582;19.528;2022-11-15T16:48:03;11.60;99.90
73360;DHT22;63092;43.582;19.528;2022-11-15T16:50:32;11.60;99.90
73360;DHT22;63092;43.582;19.528;2022-11-15T16:52:59;11.50;99.90
73360;DHT22;63092;43.582;19.528;2022-11-15T16:55:27;11.40;99.90
73360;DHT22;63092;43.582;19.528;2022-11-15T16:57:54;11.40;99.90
73360;DHT22;63092;43.582;19.528;2022-11-15T17:00:23;11.30;99.90
73360;DHT22;63092;43.582;19.528;2022-11-15T17:02:50;11.30;99.90
73360;DHT22;63092;43.582;19.528;2022-11-15T17:05:18;11.30;99.90
73360;DHT22;63092;43.582;19.528;2022-11-15T17:07:47;11.30;99.90
73360;DHT22;63092;43.582;19.528;2022-11-15T17:10:19;11.30;99.90
73360;DHT22;63092;43.582;19.528;2022-11-15T17:12:45;11.20;99.90
73360;DHT22;63092;43.582;19.528;2022-11-15T17:15:12;11.20;99.90
73360;DHT22;63092;43.582;19.528;2022-11-15T17:17:39;11.20;99.90
73360;DHT22;63092;43.582;19.528;2022-11-15T17:20:06;11.10;99.90
73360;DHT22;63092;43.582;19.528;2022-11-15T17:22:37;11.20;99.90
73360;DHT22;63092;43.582;19.528;2022-11-15T17:25:03;11.20;99.90
73360;DHT22;63092;43.582;19.528;2022-11-15T17:27:29;11.10;99.90
73360;DHT22;63092;43.582;19.528;2022-11-15T17:29:55;11.10;99.90
73360;DHT22;63092;43.582;19.528;2022-11-15T17:32:21;11.10;99.90
73360;DHT22;63092;43.582;19.528;2022-11-15T17:34:46;11.10;99.90
73360;DHT22;63092;43.582;19.528;2022-11-15T17:37:12;11.10;99.90
73360;DHT22;63092;43.582;19.528;2022-11-15T17:39:38;11.00;99.90
73360;DHT22;63092;43.582;19.528;2022-11-15T17:42:04;11.00;99.90
73360;DHT22;63092;43.582;19.528;2022-11-15T17:44:31;10.90;99.90
73360;DHT22;63092;43.582;19.528;2022-11-15T17:46:56;10.90;99.90